Time;durP1;ratioP1;P1;durP2;ratioP2;P2;SDS_P1;SDS_P2;PMS_P1;PMS_P2;Temp;Humidity;BMP_temperature;BMP_pressure;BME280_temperature;BME280_humidity;BME280_pressure;Samples;Min_cycle;Max_cycle;Signal;HPM_P1;HPM_P2
2022/03/21 00:00:25;;;;;;;0.63;0.63;;;;;;;1.62;67.79;100897.16;4935740;29;20071;-89
2022/03/21 00:02:53;;;;;;;0.70;0.70;;;;;;;1.62;67.91;100897.16;4936651;29;20086;-89
2022/03/21 00:05:20;;;;;;;0.70;0.70;;;;;;;1.60;67.93;100903.59;4936787;29;20098;-88
2022/03/21 00:07:47;;;;;;;0.60;0.60;;;;;;;1.57;68.26;100904.72;4935950;29;20055;-89
2022/03/21 00:10:14;;;;;;;0.70;0.70;;;;;;;1.56;68.19;100911.00;4918636;29;20454;-88
2022/03/21 00:12:42;;;;;;;0.60;0.60;;;;;;;1.57;68.32;100904.72;4935289;29;20047;-89
2022/03/21 00:15:10;;;;;;;0.55;0.55;;;;;;;1.53;68.28;100905.97;4935985;29;20104;-89
2022/03/21 00:17:40;;;;;;;0.60;0.60;;;;;;;1.51;68.48;100900.75;4919032;29;20055;-88
2022/03/21 00:20:12;;;;;;;0.60;0.60;;;;;;;1.50;68.39;100904.41;4935565;29;20058;-88
2022/03/21 00:22:39;;;;;;;0.60;0.60;;;;;;;1.46;68.58;100899.50;4935386;29;20062;-88
2022/03/21 00:25:09;;;;;;;0.60;0.60;;;;;;;1.43;68.67;100891.81;4935458;29;20058;-88
2022/03/21 00:27:37;;;;;;;0.60;0.60;;;;;;;1.38;68.92;100891.38;4918730;29;20142;-87
2022/03/21 00:30:11;;;;;;;0.60;0.60;;;;;;;1.41;68.92;100883.97;4918696;29;20052;-87
2022/03/21 00:32:39;;;;;;;0.57;0.57;;;;;;;1.41;68.81;100886.63;4918475;29;20052;-88
2022/03/21 00:35:12;;;;;;;0.43;0.43;;;;;;;1.33;69.29;100883.00;4919528;29;20111;-88
2022/03/21 00:37:39;;;;;;;0.70;0.70;;;;;;;1.32;69.07;100875.97;4935950;29;20075;-87
2022/03/21 00:40:07;;;;;;;0.63;0.63;;;;;;;1.29;69.21;100879.75;4936267;29;20047;-87
2022/03/21 00:42:35;;;;;;;0.70;0.70;;;;;;;1.29;69.43;100875.28;4918335;29;20079;-89
2022/03/21 00:45:04;;;;;;;0.50;0.50;;;;;;;1.18;69.24;100867.41;4917663;29;20577;-88
2022/03/21 00:47:32;;;;;;;0.70;0.70;;;;;;;1.20;69.69;100881.44;4917921;29;20047;-88
2022/03/21 00:50:07;;;;;;;0.65;0.65;;;;;;;1.10;69.81;100875.25;4935251;29;20051;-88
2022/03/21 00:52:44;;;;;;;0.80;0.80;;;;;;;1.04;70.23;100873.16;4934982;29;20066;-87
2022/03/21 00:55:13;;;;;;;0.57;0.57;;;;;;;1.03;70.45;100874.13;4919612;29;20052;-89
2022/03/21 00:57:42;;;;;;;0.60;0.60;;;;;;;1.05;70.34;100883.63;4919397;29;20146;-88
2022/03/21 01:00:21;;;;;;;0.60;0.60;;;;;;;1.11;70.28;100884.06;4920201;29;20047;-87
2022/03/21 01:02:48;;;;;;;0.60;0.60;;;;;;;1.05;70.55;100893.44;4920366;29;20511;-88
2022/03/21 01:05:16;;;;;;;0.70;0.70;;;;;;;0.94;70.68;100885.56;4918878;29;20063;-87
2022/03/21 01:07:45;;;;;;;0.70;0.70;;;;;;;0.85;71.13;100880.09;4936047;29;20147;-88
2022/03/21 01:10:15;;;;;;;0.60;0.60;;;;;;;0.92;71.17;100882.22;4902735;29;20079;-88
2022/03/21 01:12:43;;;;;;;0.50;0.50;;;;;;;0.89;70.96;100883.34;4918382;29;20586;-87
2022/03/21 01:15:14;;;;;;;0.68;0.68;;;;;;;0.81;71.27;100883.16;4918542;29;20067;-88
2022/03/21 01:17:42;;;;;;;0.55;0.55;;;;;;;0.76;71.45;100883.56;4934647;29;20082;-89
2022/03/21 01:20:14;;;;;;;0.50;0.50;;;;;;;0.76;71.42;100880.91;4934917;29;20488;-88
2022/03/21 01:22:43;;;;;;;0.50;0.50;;;;;;;0.79;71.61;100880.66;4934618;29;20059;-88
2022/03/21 01:25:13;;;;;;;0.70;0.70;;;;;;;0.75;71.71;100871.25;4934752;29;20051;-89
2022/03/21 01:27:43;;;;;;;0.40;0.40;;;;;;;0.69;71.65;100863.00;4903312;29;20075;-89
2022/03/21 01:30:14;;;;;;;0.55;0.55;;;;;;;0.76;71.69;100867.63;4934987;29;20102;-88
2022/03/21 01:32:42;;;;;;;0.60;0.60;;;;;;;0.76;71.65;100874.75;4934889;29;20048;-88
2022/03/21 01:35:15;;;;;;;0.60;0.60;;;;;;;0.73;71.90;100875.84;4935464;29;20054;-87
2022/03/21 01:37:43;;;;;;;0.30;0.30;;;;;;;0.67;72.17;100873.75;4914508;29;20431;-87
2022/03/21 01:40:15;;;;;;;0.50;0.50;;;;;;;0.67;72.08;100867.59;4917524;29;20047;-85
2022/03/21 01:42:46;;;;;;;0.52;0.52;;;;;;;0.69;72.09;100871.81;4917349;29;20048;-84
2022/03/21 01:45:19;;;;;;;0.50;0.50;;;;;;;0.52;72.23;100867.94;4918201;29;20064;-85
2022/03/21 01:47:49;;;;;;;0.50;0.50;;;;;;;0.56;72.76;100876.50;4934902;29;20055;-84
2022/03/21 01:50:16;;;;;;;0.40;0.40;;;;;;;0.57;72.76;100871.03;4933387;29;20062;-86
2022/03/21 01:52:44;;;;;;;0.70;0.70;;;;;;;0.56;72.95;100866.72;4934722;29;20056;-87
2022/03/21 01:58:04;;;;;;;0.50;0.50;;;;;;;0.51;72.92;100860.13;4935244;29;20059;-88
2022/03/21 02:00:32;;;;;;;0.70;0.70;;;;;;;0.49;73.15;100870.06;4934054;29;20055;-87
2022/03/21 02:03:00;;;;;;;0.52;0.52;;;;;;;0.39;73.05;100862.88;4915925;29;20052;-85
2022/03/21 02:05:37;;;;;;;0.70;0.70;;;;;;;0.38;73.47;100884.25;4935448;29;20494;-86
2022/03/21 02:08:05;;;;;;;0.60;0.60;;;;;;;0.41;73.62;100889.31;4938107;29;20048;-86
2022/03/21 02:10:32;;;;;;;0.43;0.43;;;;;;;0.45;73.68;100884.56;4939274;29;20060;-86
2022/03/21 02:12:59;;;;;;;0.60;0.60;;;;;;;0.40;73.60;100884.94;4937783;29;20047;-86
2022/03/21 02:15:29;;;;;;;0.57;0.57;;;;;;;0.37;73.94;100883.41;4937550;29;20422;-87
2022/03/21 02:18:00;;;;;;;0.50;0.50;;;;;;;0.38;74.17;100879.78;4937226;29;20047;-86
2022/03/21 02:20:33;;;;;;;0.60;0.60;;;;;;;0.33;74.23;100883.78;4904597;29;20055;-86
2022/03/21 02:23:07;;;;;;;0.40;0.40;;;;;;;0.27;74.38;100868.41;4920044;29;20058;-85
2022/03/21 02:25:36;;;;;;;0.68;0.68;;;;;;;0.15;74.30;100878.25;4919702;29;20146;-85
2022/03/21 02:28:07;;;;;;;0.70;0.70;;;;;;;0.11;74.48;100883.00;4937283;29;20047;-88
2022/03/21 02:30:38;;;;;;;0.47;0.47;;;;;;;0.11;74.95;100875.03;4904417;29;20048;-85
2022/03/21 02:33:05;;;;;;;0.43;0.43;;;;;;;0.10;75.17;100885.78;4904616;29;20051;-86
2022/03/21 02:35:33;;;;;;;0.52;0.52;;;;;;;0.02;75.04;100867.84;4936856;29;20060;-88
2022/03/21 02:38:01;;;;;;;0.50;0.50;;;;;;;-0.02;75.15;100885.84;4939479;29;20055;-86
2022/03/21 02:40:29;;;;;;;0.70;0.70;;;;;;;-0.07;75.57;100890.72;4920562;29;20481;-84
2022/03/21 02:42:59;;;;;;;0.60;0.60;;;;;;;-0.11;75.42;100891.09;4917471;29;20123;-88
2022/03/21 02:45:52;;;;;;;0.70;0.70;;;;;;;-0.11;75.76;100888.44;4907680;29;20047;-87
2022/03/21 02:48:20;;;;;;;0.50;0.50;;;;;;;-0.15;75.86;100877.25;4939572;29;20055;-88
2022/03/21 02:51:00;;;;;;;0.52;0.52;;;;;;;-0.31;75.99;100874.19;4921016;29;20058;-88
2022/03/21 02:53:32;;;;;;;0.50;0.50;;;;;;;-0.30;76.43;100891.81;4921455;29;20051;-87
2022/03/21 02:55:59;;;;;;;0.60;0.60;;;;;;;-0.32;76.58;100880.47;4938675;29;20570;-86
2022/03/21 02:58:26;;;;;;;0.40;0.40;;;;;;;-0.38;76.64;100875.66;4927918;29;20047;-86
2022/03/21 03:00:55;;;;;;;0.60;0.60;;;;;;;-0.36;76.74;100881.69;4945997;29;20044;-86
2022/03/21 03:03:22;;;;;;;0.50;0.50;;;;;;;-0.33;76.81;100881.44;4926385;29;20073;-86
2022/03/21 03:05:49;;;;;;;0.60;0.60;;;;;;;-0.39;76.69;100877.47;4940738;29;20598;-88
2022/03/21 03:08:16;;;;;;;0.40;0.40;;;;;;;-0.40;76.92;100880.28;4956013;29;20066;-86
2022/03/21 03:10:43;;;;;;;0.50;0.50;;;;;;;-0.38;77.07;100886.28;4959749;28;20047;-89
2022/03/21 03:13:16;;;;;;;0.65;0.65;;;;;;;-0.39;77.14;100880.13;4959970;28;20027;-88
2022/03/21 03:15:45;;;;;;;0.52;0.52;;;;;;;-0.35;77.22;100875.44;4940930;29;20060;-86
2022/03/21 03:18:12;;;;;;;0.50;0.50;;;;;;;-0.28;77.25;100879.22;4921586;29;20079;-87
2022/03/21 03:20:47;;;;;;;0.45;0.45;;;;;;;-0.29;76.79;100874.91;4903513;29;20496;-88
2022/03/21 03:23:14;;;;;;;0.50;0.50;;;;;;;-0.35;77.15;100876.28;4936919;29;20055;-86
2022/03/21 03:25:47;;;;;;;0.50;0.50;;;;;;;-0.38;77.31;100867.72;4919945;29;20059;-87
2022/03/21 03:28:16;;;;;;;0.60;0.60;;;;;;;-0.40;77.52;100864.38;4905027;29;20056;-86
2022/03/21 03:31:04;;;;;;;0.35;0.35;;;;;;;-0.40;77.71;100859.91;4920938;29;20054;-87
2022/03/21 03:33:31;;;;;;;0.70;0.70;;;;;;;-0.42;77.37;100858.34;4937681;29;20055;-89
2022/03/21 03:36:01;;;;;;;0.50;0.50;;;;;;;-0.49;77.52;100858.84;4920301;29;20276;-87
2022/03/21 03:38:28;;;;;;;0.63;0.63;;;;;;;-0.54;77.62;100861.03;4937206;29;20051;-89
2022/03/21 03:40:55;;;;;;;0.50;0.50;;;;;;;-0.50;78.21;100856.34;4919884;29;20126;-88
2022/03/21 03:43:23;;;;;;;0.60;0.60;;;;;;;-0.51;78.13;100860.78;4921122;29;20059;-88
2022/03/21 03:45:54;;;;;;;0.70;0.70;;;;;;;-0.51;78.03;100871.38;4939351;29;20074;-84
2022/03/21 03:48:21;;;;;;;0.50;0.50;;;;;;;-0.50;78.16;100862.47;4939489;29;20538;-90
2022/03/21 03:50:48;;;;;;;0.50;0.50;;;;;;;-0.53;77.97;100860.06;4913819;29;20107;-90
2022/03/21 03:53:17;;;;;;;0.45;0.45;;;;;;;-0.50;77.91;100859.81;4946083;29;20051;-90
2022/03/21 03:55:45;;;;;;;0.60;0.60;;;;;;;-0.48;78.17;100855.22;4925121;29;20154;-91
2022/03/21 03:58:15;;;;;;;0.52;0.52;;;;;;;-0.50;77.88;100846.56;4941051;29;20051;-90
2022/03/21 04:00:46;;;;;;;0.60;0.60;;;;;;;-0.42;78.31;100855.69;4925225;29;20048;-90
2022/03/21 04:06:31;;;;;;;0.50;0.50;;;;;;;-0.41;77.91;100852.88;4883123;29;20090;-91
2022/03/21 04:09:02;;;;;;;0.50;0.50;;;;;;;-0.40;78.00;100853.75;4869460;29;20053;-90
2022/03/21 04:11:31;;;;;;;0.60;0.60;;;;;;;-0.42;78.08;100850.38;4866308;29;20129;-90
2022/03/21 04:13:59;;;;;;;0.40;0.40;;;;;;;-0.41;77.81;100847.59;4855644;29;20045;-89
2022/03/21 04:16:28;;;;;;;0.60;0.60;;;;;;;-0.42;78.17;100861.00;4843459;29;20143;-89
2022/03/21 04:18:55;;;;;;;0.63;0.63;;;;;;;-0.40;78.15;100859.06;4858704;29;20053;-90
2022/03/21 04:21:26;;;;;;;0.60;0.60;;;;;;;-0.38;78.23;100857.97;4875704;29;20166;-89
2022/03/21 04:23:56;;;;;;;0.57;0.57;;;;;;;-0.33;78.18;100857.56;4856941;29;20444;-91
2022/03/21 04:27:18;;;;;;;0.52;0.52;;;;;;;-0.28;77.97;100860.66;4857209;29;20089;-90
2022/03/21 04:29:46;;;;;;;0.40;0.40;;;;;;;-0.23;77.63;100863.78;4846182;29;20061;-89
2022/03/21 04:32:16;;;;;;;0.50;0.50;;;;;;;-0.27;77.46;100841.13;4837411;29;20045;-90
2022/03/21 04:34:45;;;;;;;0.50;0.50;;;;;;;-0.17;77.25;100863.28;4866542;29;20061;-89
2022/03/21 04:40:55;;;;;;;0.70;0.70;;;;;;;-0.13;76.87;100854.06;4871427;29;20053;-91
2022/03/21 04:43:27;;;;;;;0.50;0.50;;;;;;;-0.15;77.08;100845.41;4872410;29;20142;-89
2022/03/21 04:45:55;;;;;;;0.60;0.60;;;;;;;-0.03;76.99;100860.25;4909119;29;20115;-91
2022/03/21 04:48:23;;;;;;;0.60;0.60;;;;;;;-0.19;76.89;100822.75;4966437;23;20075;-90
2022/03/21 04:50:55;;;;;;;0.60;0.60;;;;;;;-0.10;76.76;100835.25;4924736;29;20716;-90
2022/03/21 04:53:22;;;;;;;0.73;0.73;;;;;;;0.01;76.80;100854.72;4912197;29;20084;-91
2022/03/21 04:56:05;;;;;;;0.63;0.63;;;;;;;0.04;76.59;100838.53;4901232;29;20032;-90
2022/03/21 04:58:48;;;;;;;0.70;0.70;;;;;;;-0.05;76.50;100817.09;4947193;29;20102;-90
2022/03/21 05:01:31;;;;;;;0.68;0.68;;;;;;;0.06;76.32;100825.97;4869252;29;20335;-90
2022/03/21 05:04:08;;;;;;;0.73;0.73;;;;;;;0.27;75.84;100847.16;4903254;29;20061;-90
2022/03/21 05:07:05;;;;;;;0.60;0.60;;;;;;;0.33;75.82;100850.13;4861516;29;20052;-90
2022/03/21 05:09:47;;;;;;;0.80;0.80;;;;;;;0.24;75.57;100834.97;4873471;29;20045;-88
2022/03/21 05:12:24;;;;;;;0.50;0.50;;;;;;;0.18;75.19;100815.13;4856895;29;20148;-90
2022/03/21 05:15:07;;;;;;;0.70;0.70;;;;;;;0.52;74.85;100848.53;4860940;29;20067;-90
2022/03/21 05:17:39;;;;;;;0.50;0.50;;;;;;;0.56;74.64;100861.41;4868881;29;20052;-91
2022/03/21 05:20:18;;;;;;;0.50;0.50;;;;;;;0.60;74.46;100846.03;4838861;29;20053;-90
2022/03/21 05:30:57;;;;;;;0.70;0.70;;;;;;;0.64;74.29;100836.81;4873542;29;20081;-90
2022/03/21 05:31:37;;;;;;;0.60;0.60;;;;;;;0.97;72.88;100821.50;4856748;29;20172;-91
2022/03/21 05:37:21;;;;;;;0.75;0.75;;;;;;;1.18;72.02;100818.72;4848343;29;20050;-91
2022/03/21 05:42:39;;;;;;;0.80;0.80;;;;;;;1.51;71.23;100828.09;4869710;29;20059;-91
2022/03/21 05:45:20;;;;;;;0.77;0.77;;;;;;;1.45;70.56;100807.38;4871851;29;20052;-89
2022/03/21 05:50:38;;;;;;;0.70;0.70;;;;;;;1.84;70.05;100837.41;4869714;29;20057;-92
2022/03/21 05:53:08;;;;;;;0.70;0.70;;;;;;;1.67;70.35;100846.13;4867950;29;20070;-90
2022/03/21 05:55:36;;;;;;;0.70;0.70;;;;;;;1.48;70.89;100834.53;4863612;29;20063;-89
2022/03/21 05:58:03;;;;;;;0.70;0.70;;;;;;;1.48;71.06;100841.69;4877995;29;20058;-88
2022/03/21 06:00:34;;;;;;;0.70;0.70;;;;;;;1.43;71.03;100841.25;4868405;29;20144;-90
2022/03/21 06:03:03;;;;;;;0.73;0.73;;;;;;;1.75;70.56;100846.28;4863435;29;20534;-90
2022/03/21 06:05:40;;;;;;;0.70;0.70;;;;;;;2.09;69.69;100845.78;4868262;29;20086;-90
2022/03/21 06:08:10;;;;;;;0.80;0.80;;;;;;;2.33;68.97;100842.59;4885323;29;20053;-91
2022/03/21 06:10:38;;;;;;;0.90;0.90;;;;;;;2.51;68.23;100840.88;4861564;29;20102;-90
2022/03/21 06:13:06;;;;;;;0.70;0.70;;;;;;;2.72;67.17;100853.13;4856690;29;20057;-90
2022/03/21 06:15:37;;;;;;;0.70;0.70;;;;;;;2.82;66.78;100845.91;4833484;29;20152;-90
2022/03/21 06:18:10;;;;;;;0.90;0.90;;;;;;;3.04;66.29;100836.66;4883275;29;20102;-91
2022/03/21 06:20:39;;;;;;;0.65;0.65;;;;;;;3.29;65.28;100845.69;4899509;29;20056;-88
2022/03/21 06:23:09;;;;;;;0.80;0.80;;;;;;;3.28;64.77;100837.88;4905605;29;20108;-93
2022/03/21 06:25:38;;;;;;;0.70;0.70;;;;;;;3.35;64.19;100838.94;4942705;29;20084;-92
2022/03/21 06:28:15;;;;;;;0.80;0.80;;;;;;;3.30;64.40;100836.72;4894879;29;20123;-91
2022/03/21 06:30:43;;;;;;;0.70;0.70;;;;;;;3.48;64.14;100844.72;4907300;29;20052;-91
2022/03/21 06:33:10;;;;;;;0.80;0.80;;;;;;;3.68;63.48;100845.41;4905908;29;20052;-91
2022/03/21 06:35:39;;;;;;;0.70;0.70;;;;;;;3.90;63.57;100854.75;4875655;29;20048;-90
2022/03/21 06:38:09;;;;;;;0.70;0.70;;;;;;;3.96;62.38;100847.94;4897944;29;20051;-90
2022/03/21 06:40:42;;;;;;;0.70;0.70;;;;;;;3.90;62.28;100846.75;4904593;29;20088;-91
2022/03/21 06:43:10;;;;;;;0.70;0.70;;;;;;;3.99;62.25;100860.97;4903204;29;20052;-90
2022/03/21 06:45:47;;;;;;;0.70;0.70;;;;;;;4.18;61.73;100852.78;4925922;29;20060;-90
2022/03/21 06:48:15;;;;;;;0.75;0.75;;;;;;;4.20;61.05;100836.56;4927593;29;20115;-91
2022/03/21 06:50:59;;;;;;;0.70;0.70;;;;;;;4.28;61.27;100840.13;4889929;29;20051;-91
2022/03/21 06:53:31;;;;;;;0.80;0.80;;;;;;;4.32;61.27;100827.28;4918376;29;20048;-89
2022/03/21 06:56:01;;;;;;;0.60;0.60;;;;;;;4.61;60.65;100847.44;4866770;29;20055;-87
2022/03/21 06:58:29;;;;;;;0.73;0.73;;;;;;;4.64;60.18;100841.81;4911774;29;20043;-88
2022/03/21 07:00:56;;;;;;;0.70;0.70;;;;;;;4.72;59.81;100831.13;4919889;29;20052;-89
2022/03/21 07:03:26;;;;;;;0.70;0.70;;;;;;;4.96;59.19;100836.56;4928310;29;20143;-90
2022/03/21 07:05:55;;;;;;;0.60;0.60;;;;;;;4.90;58.43;100823.00;4903223;29;20127;-90
2022/03/21 07:08:28;;;;;;;0.60;0.60;;;;;;;4.98;58.27;100823.00;4912915;29;20052;-86
2022/03/21 07:10:56;;;;;;;0.60;0.60;;;;;;;5.08;58.04;100828.22;4911617;29;20499;-86
2022/03/21 07:13:23;;;;;;;0.60;0.60;;;;;;;5.17;57.90;100836.09;4924589;29;20044;-89
2022/03/21 07:15:53;;;;;;;0.60;0.60;;;;;;;5.36;57.53;100826.91;4902768;29;20106;-91
2022/03/21 07:18:25;;;;;;;0.70;0.70;;;;;;;5.27;56.18;100794.97;4850979;29;20063;-89
2022/03/21 07:20:52;;;;;;;0.70;0.70;;;;;;;5.45;55.87;100811.69;4848045;29;20225;-88
2022/03/21 07:23:19;;;;;;;0.70;0.70;;;;;;;5.57;55.52;100807.69;4855996;29;20049;-89
2022/03/21 07:25:49;;;;;;;0.70;0.70;;;;;;;5.71;55.28;100803.47;4884807;29;20065;-88
2022/03/21 07:28:16;;;;;;;0.70;0.70;;;;;;;5.76;55.20;100789.59;4872088;29;20060;-86
2022/03/21 07:30:45;;;;;;;0.60;0.60;;;;;;;6.16;54.63;100818.19;4859409;29;20057;-93
2022/03/21 07:33:28;;;;;;;0.60;0.60;;;;;;;5.94;53.92;100778.69;4843376;29;20049;-92
2022/03/21 07:36:09;;;;;;;0.70;0.70;;;;;;;6.23;53.53;100802.25;4847001;29;20052;-91
2022/03/21 07:38:37;;;;;;;0.65;0.65;;;;;;;6.21;53.16;100783.66;4839149;29;20192;-88
2022/03/21 07:41:08;;;;;;;0.80;0.80;;;;;;;6.73;52.71;100822.50;4832083;29;20125;-90
2022/03/21 07:43:50;;;;;;;0.70;0.70;;;;;;;6.93;51.93;100815.69;4819961;29;20054;-92
2022/03/21 07:49:04;;;;;;;0.70;0.70;;;;;;;7.21;51.03;100807.13;4828758;29;20144;-90
2022/03/21 07:51:35;;;;;;;0.70;0.70;;;;;;;7.32;50.62;100779.03;4821905;29;20664;-88
2022/03/21 07:54:02;;;;;;;0.70;0.70;;;;;;;7.71;50.08;100788.75;4823144;29;20050;-88
2022/03/21 07:56:31;;;;;;;0.80;0.80;;;;;;;7.62;48.94;100790.66;4773395;29;20078;-88
2022/03/21 07:58:59;;;;;;;0.73;0.73;;;;;;;7.84;48.63;100804.25;4835690;29;20054;-87
2022/03/21 08:01:29;;;;;;;0.70;0.70;;;;;;;7.73;48.04;100787.56;4835108;29;20062;-86
2022/03/21 08:03:58;;;;;;;0.70;0.70;;;;;;;7.88;47.46;100778.69;4822180;29;20088;-85
2022/03/21 08:06:31;;;;;;;0.70;0.70;;;;;;;8.06;46.79;100783.72;4833818;29;20062;-90
2022/03/21 08:08:58;;;;;;;0.80;0.80;;;;;;;8.30;46.41;100791.50;4856681;29;20048;-88
2022/03/21 08:11:25;;;;;;;0.70;0.70;;;;;;;8.25;45.91;100781.31;4887493;29;20045;-84
2022/03/21 08:13:53;;;;;;;0.70;0.70;;;;;;;8.58;45.91;100767.50;4875611;29;20052;-87
2022/03/21 08:16:20;;;;;;;0.70;0.70;;;;;;;8.85;44.85;100773.16;4876887;29;20048;-88
2022/03/21 08:18:49;;;;;;;0.70;0.70;;;;;;;9.36;44.04;100789.22;4905464;29;20523;-87
2022/03/21 08:21:17;;;;;;;0.70;0.70;;;;;;;9.80;43.53;100798.94;4918299;29;20052;-87
2022/03/21 08:23:45;;;;;;;0.70;0.70;;;;;;;10.20;42.99;100777.63;4592492;29;10000507;-87
2022/03/21 08:26:13;;;;;;;0.70;0.70;;;;;;;10.59;42.19;100784.28;4920233;29;20051;-91
2022/03/21 08:28:41;;;;;;;0.70;0.70;;;;;;;10.67;40.95;100786.81;4932512;29;20116;-90
2022/03/21 08:31:13;;;;;;;0.70;0.70;;;;;;;10.68;40.31;100774.13;4888225;29;20040;-88
2022/03/21 08:33:41;;;;;;;0.70;0.70;;;;;;;10.83;40.78;100794.53;4902296;29;20043;-91
2022/03/21 08:36:12;;;;;;;0.70;0.70;;;;;;;11.04;39.72;100792.78;4900038;29;20048;-86
2022/03/21 08:38:40;;;;;;;0.70;0.70;;;;;;;11.13;39.46;100796.94;4920872;29;20095;-89
2022/03/21 08:41:07;;;;;;;0.70;0.70;;;;;;;11.20;38.95;100784.25;4896122;29;20509;-88
2022/03/21 08:43:36;;;;;;;0.60;0.60;;;;;;;11.37;38.56;100782.00;4908458;29;20115;-87
2022/03/21 08:46:03;;;;;;;0.60;0.60;;;;;;;11.70;37.91;100810.94;4880759;29;20083;-90
2022/03/21 08:51:37;;;;;;;0.70;0.70;;;;;;;11.84;37.79;100800.94;4891788;29;20125;-90
2022/03/21 08:54:07;;;;;;;0.80;0.80;;;;;;;12.09;37.03;100804.69;4896670;29;20082;-90
2022/03/21 08:56:34;;;;;;;0.70;0.70;;;;;;;12.49;36.21;100804.59;4892195;29;20070;-88
2022/03/21 08:59:03;;;;;;;0.70;0.70;;;;;;;12.79;36.14;100804.09;4892033;29;20052;-89
2022/03/21 09:01:31;;;;;;;0.70;0.70;;;;;;;12.62;35.72;100792.88;4900068;29;20044;-85
2022/03/21 09:04:02;;;;;;;0.70;0.70;;;;;;;12.88;34.94;100789.22;4899391;29;20143;-86
2022/03/21 09:06:33;;;;;;;0.70;0.70;;;;;;;13.12;34.95;100784.09;4895404;29;20078;-87
2022/03/21 09:09:03;;;;;;;0.70;0.70;;;;;;;13.43;33.85;100786.00;4903897;29;20410;-85
2022/03/21 09:11:31;;;;;;;0.70;0.70;;;;;;;13.08;34.43;100785.59;4905315;29;20068;-84
2022/03/21 09:13:58;;;;;;;0.70;0.70;;;;;;;13.14;33.99;100787.41;4892870;29;20546;-85
2022/03/21 09:16:25;;;;;;;0.80;0.80;;;;;;;13.29;33.44;100774.41;4910552;29;20496;-84
2022/03/21 09:18:52;;;;;;;0.70;0.70;;;;;;;13.48;33.32;100780.75;4916551;29;20092;-85
2022/03/21 09:21:19;;;;;;;0.70;0.70;;;;;;;13.58;33.26;100774.84;4919806;29;20052;-86
2022/03/21 09:23:47;;;;;;;0.70;0.70;;;;;;;13.94;32.79;100768.66;4932449;29;20120;-87
2022/03/21 09:26:15;;;;;;;0.70;0.70;;;;;;;14.35;32.67;100777.22;4914955;29;20040;-85
2022/03/21 09:28:44;;;;;;;0.70;0.70;;;;;;;14.46;31.29;100776.47;4910451;29;20087;-85
2022/03/21 09:31:13;;;;;;;0.60;0.60;;;;;;;14.66;31.56;100777.09;4920695;29;20047;-87
2022/03/21 09:34:00;;;;;;;0.70;0.70;;;;;;;14.73;30.81;100777.81;4921425;29;20060;-83
2022/03/21 09:36:27;;;;;;;0.70;0.70;;;;;;;14.83;30.79;100771.03;4928927;29;20058;-86
2022/03/21 09:38:54;;;;;;;0.80;0.80;;;;;;;15.28;30.19;100767.88;4916938;29;20146;-84
2022/03/21 09:41:26;;;;;;;0.70;0.70;;;;;;;15.25;29.38;100762.91;4917452;29;20658;-85
2022/03/21 09:43:58;;;;;;;0.70;0.70;;;;;;;15.30;29.59;100771.19;4931069;29;20048;-84
2022/03/21 09:46:25;;;;;;;0.73;0.73;;;;;;;15.34;29.64;100766.94;4904057;29;20055;-84
2022/03/21 09:48:57;;;;;;;0.70;0.70;;;;;;;15.60;28.51;100776.59;4923995;29;20058;-86
2022/03/21 09:51:28;;;;;;;0.70;0.70;;;;;;;16.15;28.40;100778.16;4909912;29;20063;-86
2022/03/21 09:53:59;;;;;;;0.70;0.70;;;;;;;15.67;28.09;100755.50;4907176;29;20048;-85
2022/03/21 09:56:30;;;;;;;0.75;0.75;;;;;;;16.09;28.19;100760.06;4929158;29;20084;-83
2022/03/21 09:59:00;;;;;;;0.70;0.70;;;;;;;16.73;27.37;100760.03;4921958;29;20169;-84
2022/03/21 10:01:29;;;;;;;0.60;0.60;;;;;;;16.82;27.40;100762.16;4927113;29;20143;-84
2022/03/21 10:03:59;;;;;;;0.60;0.60;;;;;;;16.92;26.65;100768.88;4912048;29;20525;-84
2022/03/21 10:06:37;;;;;;;0.70;0.70;;;;;;;16.56;27.24;100757.22;4910477;29;20056;-84
2022/03/21 10:09:19;;;;;;;0.70;0.70;;;;;;;16.25;27.18;100768.34;4920890;29;20055;-87
2022/03/21 10:11:51;;;;;;;0.60;0.60;;;;;;;16.14;26.66;100765.63;4910059;29;20113;-85
2022/03/21 10:14:33;;;;;;;0.60;0.60;;;;;;;16.80;26.45;100752.56;4922088;29;20103;-86
2022/03/21 10:17:05;;;;;;;0.60;0.60;;;;;;;16.56;26.16;100751.78;4926776;29;20417;-85
2022/03/21 10:19:47;;;;;;;0.70;0.70;;;;;;;17.19;26.24;100756.31;4925692;29;20511;-85
2022/03/21 10:22:16;;;;;;;0.70;0.70;;;;;;;17.71;24.97;100753.34;4919957;29;20052;-85
2022/03/21 10:24:46;;;;;;;0.70;0.70;;;;;;;18.32;24.33;100761.59;4922670;29;20067;-85
2022/03/21 10:27:36;;;;;;;0.70;0.70;;;;;;;18.56;23.84;100753.16;4897330;29;20115;-85
2022/03/21 10:30:07;;;;;;;0.70;0.70;;;;;;;17.80;24.08;100761.13;4899226;29;20514;-84
2022/03/21 10:32:42;;;;;;;0.70;0.70;;;;;;;17.75;24.58;100753.69;4923937;29;20048;-87
2022/03/21 10:35:12;;;;;;;;;;;;;;;17.97;23.90;100764.66;4925872;29;20537;-87
2022/03/21 10:38:03;;;;;;;0.70;0.70;;;;;;;17.97;24.01;100760.03;4914381;29;19927;-88
2022/03/21 10:40:43;;;;;;;0.70;0.70;;;;;;;18.73;23.55;100764.03;4907533;29;20179;-85
2022/03/21 10:43:14;;;;;;;0.70;0.70;;;;;;;19.00;22.91;100747.66;4926752;29;20051;-85
2022/03/21 10:45:51;;;;;;;0.70;0.70;;;;;;;19.31;22.90;100743.31;4922672;29;20086;-85
2022/03/21 10:48:25;;;;;;;0.60;0.60;;;;;;;19.12;22.69;100750.25;4926286;29;20063;-85
2022/03/21 10:50:54;;;;;;;0.70;0.70;;;;;;;19.10;22.68;100760.63;4915813;29;20071;-84
2022/03/21 10:53:27;;;;;;;0.60;0.60;;;;;;;18.75;22.86;100748.19;4917853;29;20499;-86
2022/03/21 10:56:03;;;;;;;0.70;0.70;;;;;;;18.36;23.19;100734.63;4931263;29;20062;-84
2022/03/21 10:58:33;;;;;;;0.70;0.70;;;;;;;18.39;23.36;100729.44;4917061;29;20119;-87
2022/03/21 11:01:24;;;;;;;0.70;0.70;;;;;;;18.75;23.53;100746.31;4884204;29;20063;-84
2022/03/21 11:03:56;;;;;;;0.70;0.70;;;;;;;19.54;22.23;100739.38;4917181;29;20508;-84
2022/03/21 11:06:24;;;;;;;0.70;0.70;;;;;;;19.25;22.36;100736.16;4924863;29;20052;-84
2022/03/21 11:08:52;;;;;;;0.70;0.70;;;;;;;19.56;22.47;100742.69;4919327;29;20508;-83
2022/03/21 11:11:20;;;;;;;0.70;0.70;;;;;;;20.09;21.23;100743.63;4924906;29;20131;-85
2022/03/21 11:13:48;;;;;;;0.70;0.70;;;;;;;19.61;21.62;100730.97;4932005;29;20056;-86
2022/03/21 11:16:19;;;;;;;0.70;0.70;;;;;;;19.92;21.78;100746.53;4939447;29;20075;-84
2022/03/21 11:18:59;;;;;;;0.60;0.60;;;;;;;20.63;20.67;100741.69;4910171;29;20126;-84
2022/03/21 11:21:26;;;;;;;0.70;0.70;;;;;;;20.60;21.09;100737.59;4911237;29;20059;-84
2022/03/21 11:23:54;;;;;;;0.60;0.60;;;;;;;20.96;21.07;100741.25;4905187;29;20052;-84
2022/03/21 11:26:36;;;;;;;0.60;0.60;;;;;;;21.51;19.90;100732.53;4930104;29;20447;-84
2022/03/21 11:29:41;;;;;;;0.60;0.60;;;;;;;21.20;21.09;100743.50;4894168;29;20103;-83
2022/03/21 11:32:17;;;;;;;0.70;0.70;;;;;;;20.59;21.16;100730.47;4841942;29;20153;-83
2022/03/21 11:35:17;;;;;;;0.60;0.60;;;;;;;20.47;20.84;100735.31;4857624;29;20057;-83
2022/03/21 11:37:44;;;;;;;0.70;0.70;;;;;;;20.35;21.19;100725.38;4831779;29;20057;-85
2022/03/21 11:40:23;;;;;;;0.70;0.70;;;;;;;20.86;20.33;100724.75;4815891;29;20458;-85
2022/03/21 11:42:53;;;;;;;0.70;0.70;;;;;;;20.53;20.68;100731.50;4827292;29;20055;-84
2022/03/21 11:45:24;;;;;;;0.70;0.70;;;;;;;20.89;20.48;100734.34;4831286;29;20054;-84
2022/03/21 11:48:17;;;;;;;0.70;0.70;;;;;;;20.89;20.89;100724.22;4820114;29;20085;-84
2022/03/21 11:50:56;;;;;;;0.70;0.70;;;;;;;21.59;20.17;100715.50;4815801;29;20057;-84
2022/03/21 11:53:32;;;;;;;0.60;0.60;;;;;;;21.37;19.71;100713.00;4821399;29;20495;-86
2022/03/21 11:55:59;;;;;;;0.70;0.70;;;;;;;20.69;20.54;100708.53;4830445;29;20478;-84
2022/03/21 11:58:43;;;;;;;0.60;0.60;;;;;;;21.54;19.79;100708.06;4839000;29;20061;-84
2022/03/21 12:01:24;;;;;;;0.60;0.60;;;;;;;20.88;19.97;100717.06;4827814;29;20126;-83
2022/03/21 12:03:52;;;;;;;0.60;0.60;;;;;;;21.40;20.68;100716.06;4825236;29;20081;-84
2022/03/21 12:06:23;;;;;;;0.60;0.60;;;;;;;21.98;20.38;100707.47;4856774;29;20053;-84
2022/03/21 12:08:55;;;;;;;0.70;0.70;;;;;;;22.23;19.45;100711.25;4872635;29;20584;-84
2022/03/21 12:11:40;;;;;;;0.60;0.60;;;;;;;22.06;18.69;100698.63;4883384;29;20126;-84
2022/03/21 12:14:20;;;;;;;0.60;0.60;;;;;;;21.19;19.39;100712.47;4904531;29;20059;-83
2022/03/21 12:17:10;;;;;;;0.60;0.60;;;;;;;21.49;19.59;100710.81;4912392;29;20060;-85
2022/03/21 12:19:54;;;;;;;0.60;0.60;;;;;;;22.14;19.38;100710.97;4929419;29;20503;-82